sensor_id;sensor_type;location;lat;lon;timestamp;pressure;altitude;pressure_sealevel;temperature;humidity
9421;BME280;4749;51.398;5.466;2023-05-03T00:00:14;102633.38;;;9.26;100.00
9421;BME280;4749;51.398;5.466;2023-05-03T00:02:42;102634.97;;;9.23;100.00
9421;BME280;4749;51.398;5.466;2023-05-03T00:05:11;102637.50;;;9.20;100.00
9421;BME280;4749;51.398;5.466;2023-05-03T00:07:41;102636.47;;;9.16;100.00
9421;BME280;4749;51.398;5.466;2023-05-03T00:10:13;102627.59;;;9.13;100.00
9421;BME280;4749;51.398;5.466;2023-05-03T00:12:43;102622.28;;;9.11;100.00
9421;BME280;4749;51.398;5.466;2023-05-03T00:15:10;102629.13;;;9.08;100.00
9421;BME280;4749;51.398;5.466;2023-05-03T00:17:37;102631.66;;;9.05;100.00
9421;BME280;4749;51.398;5.466;2023-05-03T00:20:06;102623.69;;;9.01;100.00
9421;BME280;4749;51.398;5.466;2023-05-03T00:22:34;102626.13;;;8.97;100.00
9421;BME280;4749;51.398;5.466;2023-05-03T00:25:01;102627.81;;;8.95;100.00
9421;BME280;4749;51.398;5.466;2023-05-03T00:27:28;102628.50;;;8.91;100.00
9421;BME280;4749;51.398;5.466;2023-05-03T00:29:55;102625.78;;;8.88;100.00
9421;BME280;4749;51.398;5.466;2023-05-03T00:32:23;102635.28;;;8.84;100.00
9421;BME280;4749;51.398;5.466;2023-05-03T00:34:55;102635.13;;;8.81;100.00
9421;BME280;4749;51.398;5.466;2023-05-03T00:37:24;102628.16;;;8.82;100.00
9421;BME280;4749;51.398;5.466;2023-05-03T00:39:51;102628.94;;;8.79;100.00
9421;BME280;4749;51.398;5.466;2023-05-03T00:42:19;102631.47;;;8.76;100.00
9421;BME280;4749;51.398;5.466;2023-05-03T00:44:46;102627.88;;;8.74;100.00
9421;BME280;4749;51.398;5.466;2023-05-03T00:47:14;102626.94;;;8.72;100.00
9421;BME280;4749;51.398;5.466;2023-05-03T00:49:42;102625.03;;;8.68;100.00
9421;BME280;4749;51.398;5.466;2023-05-03T00:52:10;102631.03;;;8.65;100.00
9421;BME280;4749;51.398;5.466;2023-05-03T00:54:37;102630.03;;;8.62;100.00
9421;BME280;4749;51.398;5.466;2023-05-03T00:57:05;102634.28;;;8.58;100.00
9421;BME280;4749;51.398;5.466;2023-05-03T00:59:32;102634.19;;;8.57;100.00
9421;BME280;4749;51.398;5.466;2023-05-03T01:02:00;102633.19;;;8.53;100.00
9421;BME280;4749;51.398;5.466;2023-05-03T01:04:28;102634.88;;;8.51;100.00
9421;BME280;4749;51.398;5.466;2023-05-03T01:07:24;102629.44;;;8.46;100.00
9421;BME280;4749;51.398;5.466;2023-05-03T01:18:40;102627.88;;;8.31;100.00
9421;BME280;4749;51.398;5.466;2023-05-03T01:21:12;102622.53;;;8.28;100.00
9421;BME280;4749;51.398;5.466;2023-05-03T01:28:44;102625.72;;;8.21;100.00
9421;BME280;4749;51.398;5.466;2023-05-03T01:31:17;102626.50;;;8.18;100.00
9421;BME280;4749;51.398;5.466;2023-05-03T01:36:36;102630.66;;;8.13;100.00
9421;BME280;4749;51.398;5.466;2023-05-03T01:39:13;102636.63;;;8.09;100.00
9421;BME280;4749;51.398;5.466;2023-05-03T01:41:42;102637.34;;;8.06;100.00
9421;BME280;4749;51.398;5.466;2023-05-03T01:44:12;102635.50;;;8.04;100.00
9421;BME280;4749;51.398;5.466;2023-05-03T01:46:46;102633.66;;;8.01;100.00
9421;BME280;4749;51.398;5.466;2023-05-03T01:49:13;102642.38;;;8.00;100.00
9421;BME280;4749;51.398;5.466;2023-05-03T01:51:40;102636.97;;;7.97;100.00
9421;BME280;4749;51.398;5.466;2023-05-03T01:54:07;102634.25;;;7.94;100.00
9421;BME280;4749;51.398;5.466;2023-05-03T01:56:36;102634.03;;;7.89;100.00
9421;BME280;4749;51.398;5.466;2023-05-03T01:59:03;102639.22;;;7.88;100.00
9421;BME280;4749;51.398;5.466;2023-05-03T02:01:30;102641.78;;;7.86;100.00
9421;BME280;4749;51.398;5.466;2023-05-03T02:03:57;102646.06;;;7.84;100.00
9421;BME280;4749;51.398;5.466;2023-05-03T02:06:25;102646.63;;;7.77;100.00
9421;BME280;4749;51.398;5.466;2023-05-03T02:08:53;102637.88;;;7.77;100.00
9421;BME280;4749;51.398;5.466;2023-05-03T02:11:20;102636.94;;;7.75;100.00
9421;BME280;4749;51.398;5.466;2023-05-03T02:13:48;102635.03;;;7.72;100.00
9421;BME280;4749;51.398;5.466;2023-05-03T02:16:18;102636.66;;;7.69;100.00
9421;BME280;4749;51.398;5.466;2023-05-03T02:18:45;102633.97;;;7.67;100.00
9421;BME280;4749;51.398;5.466;2023-05-03T02:21:12;102633.75;;;7.62;100.00
9421;BME280;4749;51.398;5.466;2023-05-03T02:23:40;102633.66;;;7.59;100.00
9421;BME280;4749;51.398;5.466;2023-05-03T02:26:07;102634.47;;;7.58;100.00
9421;BME280;4749;51.398;5.466;2023-05-03T02:28:34;102629.19;;;7.57;100.00
9421;BME280;4749;51.398;5.466;2023-05-03T02:31:01;102616.78;;;7.53;100.00
9421;BME280;4749;51.398;5.466;2023-05-03T02:33:28;102623.59;;;7.49;100.00
9421;BME280;4749;51.398;5.466;2023-05-03T02:35:58;102618.22;;;7.46;100.00
9421;BME280;4749;51.398;5.466;2023-05-03T02:38:25;102614.59;;;7.43;100.00
9421;BME280;4749;51.398;5.466;2023-05-03T02:40:52;102618.78;;;7.39;100.00
9421;BME280;4749;51.398;5.466;2023-05-03T02:43:19;102603.84;;;7.37;100.00
9421;BME280;4749;51.398;5.466;2023-05-03T02:45:46;102604.63;;;7.34;100.00
9421;BME280;4749;51.398;5.466;2023-05-03T02:48:14;102600.06;;;7.30;100.00
9421;BME280;4749;51.398;5.466;2023-05-03T02:50:42;102594.69;;;7.27;100.00
9421;BME280;4749;51.398;5.466;2023-05-03T02:53:09;102590.91;;;7.20;100.00
9421;BME280;4749;51.398;5.466;2023-05-03T02:55:38;102584.66;;;7.17;100.00
9421;BME280;4749;51.398;5.466;2023-05-03T02:58:05;102580.16;;;7.14;100.00
9421;BME280;4749;51.398;5.466;2023-05-03T03:00:33;102571.25;;;7.09;100.00
9421;BME280;4749;51.398;5.466;2023-05-03T03:03:00;102568.47;;;7.06;100.00
9421;BME280;4749;51.398;5.466;2023-05-03T03:05:28;102564.84;;;7.02;100.00
9421;BME280;4749;51.398;5.466;2023-05-03T03:07:55;102567.28;;;6.98;100.00
9421;BME280;4749;51.398;5.466;2023-05-03T03:10:23;102567.19;;;6.96;100.00
9421;BME280;4749;51.398;5.466;2023-05-03T03:12:50;102575.72;;;6.92;100.00
9421;BME280;4749;51.398;5.466;2023-05-03T03:15:17;102584.41;;;6.91;100.00
9421;BME280;4749;51.398;5.466;2023-05-03T03:17:44;102594.69;;;6.88;100.00
9421;BME280;4749;51.398;5.466;2023-05-03T03:20:11;102596.41;;;6.88;100.00
9421;BME280;4749;51.398;5.466;2023-05-03T03:22:39;102590.22;;;6.86;100.00
9421;BME280;4749;51.398;5.466;2023-05-03T03:25:07;102584.06;;;6.84;100.00
9421;BME280;4749;51.398;5.466;2023-05-03T03:27:34;102579.72;;;6.84;100.00
9421;BME280;4749;51.398;5.466;2023-05-03T03:30:06;102579.59;;;6.81;100.00
9421;BME280;4749;51.398;5.466;2023-05-03T03:32:33;102594.34;;;6.81;100.00
9421;BME280;4749;51.398;5.466;2023-05-03T03:35:01;102596.91;;;6.79;100.00
9421;BME280;4749;51.398;5.466;2023-05-03T03:37:28;102602.13;;;6.79;100.00
9421;BME280;4749;51.398;5.466;2023-05-03T03:39:55;102602.00;;;6.76;100.00
9421;BME280;4749;51.398;5.466;2023-05-03T03:42:23;102601.09;;;6.75;100.00
9421;BME280;4749;51.398;5.466;2023-05-03T03:44:51;102594.09;;;6.74;100.00
9421;BME280;4749;51.398;5.466;2023-05-03T03:47:18;102594.97;;;6.75;100.00
9421;BME280;4749;51.398;5.466;2023-05-03T03:49:45;102594.81;;;6.72;100.00
9421;BME280;4749;51.398;5.466;2023-05-03T03:52:13;102596.47;;;6.70;100.00
9421;BME280;4749;51.398;5.466;2023-05-03T03:54:40;102602.47;;;6.67;100.00
9421;BME280;4749;51.398;5.466;2023-05-03T03:57:07;102600.69;;;6.66;100.00
9421;BME280;4749;51.398;5.466;2023-05-03T03:59:35;102588.56;;;6.68;100.00
9421;BME280;4749;51.398;5.466;2023-05-03T04:02:02;102585.13;;;6.69;100.00
9421;BME280;4749;51.398;5.466;2023-05-03T04:04:29;102598.19;;;6.69;100.00
9421;BME280;4749;51.398;5.466;2023-05-03T04:06:57;102605.09;;;6.67;100.00
9421;BME280;4749;51.398;5.466;2023-05-03T04:09:24;102606.03;;;6.69;100.00
9421;BME280;4749;51.398;5.466;2023-05-03T04:11:51;102606.94;;;6.70;100.00
9421;BME280;4749;51.398;5.466;2023-05-03T04:14:20;102607.69;;;6.67;100.00
9421;BME280;4749;51.398;5.466;2023-05-03T04:16:47;102603.38;;;6.68;100.00
9421;BME280;4749;51.398;5.466;2023-05-03T04:19:14;102610.44;;;6.70;100.00
9421;BME280;4749;51.398;5.466;2023-05-03T04:21:42;102612.31;;;6.73;100.00
9421;BME280;4749;51.398;5.466;2023-05-03T04:24:14;102617.63;;;6.74;100.00
9421;BME280;4749;51.398;5.466;2023-05-03T04:26:42;102609.84;;;6.76;100.00
9421;BME280;4749;51.398;5.466;2023-05-03T04:29:09;102606.47;;;6.78;100.00
9421;BME280;4749;51.398;5.466;2023-05-03T04:31:38;102613.56;;;6.81;100.00
9421;BME280;4749;51.398;5.466;2023-05-03T04:34:05;102611.84;;;6.82;100.00
9421;BME280;4749;51.398;5.466;2023-05-03T04:36:34;102617.34;;;6.88;100.00
9421;BME280;4749;51.398;5.466;2023-05-03T04:39:02;102624.34;;;6.89;100.00
9421;BME280;4749;51.398;5.466;2023-05-03T04:41:29;102629.81;;;6.93;100.00
9421;BME280;4749;51.398;5.466;2023-05-03T04:43:56;102619.41;;;6.95;100.00
9421;BME280;4749;51.398;5.466;2023-05-03T04:46:23;102629.22;;;6.99;100.00
9421;BME280;4749;51.398;5.466;2023-05-03T04:48:50;102630.34;;;7.05;100.00
9421;BME280;4749;51.398;5.466;2023-05-03T04:51:17;102635.88;;;7.12;100.00
9421;BME280;4749;51.398;5.466;2023-05-03T04:53:44;102641.44;;;7.19;100.00
9421;BME280;4749;51.398;5.466;2023-05-03T04:56:11;102653.03;;;7.24;100.00
9421;BME280;4749;51.398;5.466;2023-05-03T04:58:38;102655.84;;;7.29;100.00
9421;BME280;4749;51.398;5.466;2023-05-03T05:01:05;102653.50;;;7.35;100.00
9421;BME280;4749;51.398;5.466;2023-05-03T05:03:33;102663.25;;;7.39;100.00
9421;BME280;4749;51.398;5.466;2023-05-03T05:06:01;102688.00;;;7.46;100.00
9421;BME280;4749;51.398;5.466;2023-05-03T05:08:28;102679.53;;;7.51;100.00
9421;BME280;4749;51.398;5.466;2023-05-03T05:10:55;102683.38;;;7.59;100.00
9421;BME280;4749;51.398;5.466;2023-05-03T05:13:22;102692.25;;;7.63;100.00
9421;BME280;4749;51.398;5.466;2023-05-03T05:15:49;102689.06;;;7.70;100.00
9421;BME280;4749;51.398;5.466;2023-05-03T05:18:16;102687.69;;;7.78;100.00
9421;BME280;4749;51.398;5.466;2023-05-03T05:20:43;102678.56;;;7.89;100.00
9421;BME280;4749;51.398;5.466;2023-05-03T05:23:10;102679.66;;;7.95;100.00
9421;BME280;4749;51.398;5.466;2023-05-03T05:25:38;102687.06;;;8.05;100.00
9421;BME280;4749;51.398;5.466;2023-05-03T05:28:05;102688.28;;;8.13;100.00
9421;BME280;4749;51.398;5.466;2023-05-03T05:30:32;102681.59;;;8.19;100.00
9421;BME280;4749;51.398;5.466;2023-05-03T05:33:00;102685.41;;;8.28;100.00
9421;BME280;4749;51.398;5.466;2023-05-03T05:35:27;102677.03;;;8.35;100.00
9421;BME280;4749;51.398;5.466;2023-05-03T05:37:54;102679.13;;;8.43;100.00
9421;BME280;4749;51.398;5.466;2023-05-03T05:40:21;102675.03;;;8.50;100.00
9421;BME280;4749;51.398;5.466;2023-05-03T05:42:48;102671.78;;;8.57;100.00
9421;BME280;4749;51.398;5.466;2023-05-03T05:45:15;102677.28;;;8.63;100.00
9421;BME280;4749;51.398;5.466;2023-05-03T05:47:43;102670.56;;;8.70;100.00
9421;BME280;4749;51.398;5.466;2023-05-03T05:50:11;102682.19;;;8.77;100.00
9421;BME280;4749;51.398;5.466;2023-05-03T05:52:44;102679.88;;;8.84;100.00
9421;BME280;4749;51.398;5.466;2023-05-03T05:55:11;102674.84;;;8.90;100.00
9421;BME280;4749;51.398;5.466;2023-05-03T05:57:40;102686.41;;;8.95;100.00
9421;BME280;4749;51.398;5.466;2023-05-03T06:00:08;102691.00;;;9.01;100.00
9421;BME280;4749;51.398;5.466;2023-05-03T06:02:40;102687.84;;;9.10;100.00
9421;BME280;4749;51.398;5.466;2023-05-03T06:05:10;102687.09;;;9.14;100.00
9421;BME280;4749;51.398;5.466;2023-05-03T06:07:37;102686.50;;;9.21;100.00
9421;BME280;4749;51.398;5.466;2023-05-03T06:10:05;102678.03;;;9.28;100.00
9421;BME280;4749;51.398;5.466;2023-05-03T06:12:33;102684.50;;;9.38;100.00
9421;BME280;4749;51.398;5.466;2023-05-03T06:15:01;102673.41;;;9.45;100.00
9421;BME280;4749;51.398;5.466;2023-05-03T06:17:29;102682.53;;;9.56;100.00
9421;BME280;4749;51.398;5.466;2023-05-03T06:19:57;102682.03;;;9.66;100.00
9421;BME280;4749;51.398;5.466;2023-05-03T06:22:24;102687.63;;;9.75;100.00
9421;BME280;4749;51.398;5.466;2023-05-03T06:24:52;102681.00;;;9.86;100.00
9421;BME280;4749;51.398;5.466;2023-05-03T06:27:19;102683.91;;;9.94;100.00
9421;BME280;4749;51.398;5.466;2023-05-03T06:29:47;102666.56;;;9.99;100.00
9421;BME280;4749;51.398;5.466;2023-05-03T06:32:15;102678.28;;;10.09;100.00
9421;BME280;4749;51.398;5.466;2023-05-03T06:34:42;102678.66;;;10.20;100.00
9421;BME280;4749;51.398;5.466;2023-05-03T06:37:09;102686.97;;;10.32;100.00
9421;BME280;4749;51.398;5.466;2023-05-03T06:39:37;102683.72;;;10.40;100.00
9421;BME280;4749;51.398;5.466;2023-05-03T06:42:04;102686.41;;;10.42;100.00
9421;BME280;4749;51.398;5.466;2023-05-03T06:44:31;102691.06;;;10.51;100.00
9421;BME280;4749;51.398;5.466;2023-05-03T06:46:58;102687.03;;;10.60;100.00
9421;BME280;4749;51.398;5.466;2023-05-03T06:49:26;102682.91;;;10.68;100.00
9421;BME280;4749;51.398;5.466;2023-05-03T06:51:55;102679.53;;;10.74;100.00
9421;BME280;4749;51.398;5.466;2023-05-03T06:54:22;102676.34;;;10.84;100.00
9421;BME280;4749;51.398;5.466;2023-05-03T06:56:49;102672.28;;;10.94;100.00
9421;BME280;4749;51.398;5.466;2023-05-03T06:59:17;102672.44;;;11.00;100.00
9421;BME280;4749;51.398;5.466;2023-05-03T07:01:44;102666.41;;;11.03;100.00
9421;BME280;4749;51.398;5.466;2023-05-03T07:04:12;102665.44;;;11.00;100.00
9421;BME280;4749;51.398;5.466;2023-05-03T07:06:39;102670.25;;;11.15;100.00
9421;BME280;4749;51.398;5.466;2023-05-03T07:09:21;102667.13;;;11.27;100.00
9421;BME280;4749;51.398;5.466;2023-05-03T07:12:08;102672.00;;;11.45;100.00
9421;BME280;4749;51.398;5.466;2023-05-03T07:14:35;102670.53;;;11.54;100.00
9421;BME280;4749;51.398;5.466;2023-05-03T07:17:02;102676.94;;;11.64;100.00
9421;BME280;4749;51.398;5.466;2023-05-03T07:19:29;102662.19;;;11.71;100.00
9421;BME280;4749;51.398;5.466;2023-05-03T07:21:56;102668.69;;;11.83;100.00
9421;BME280;4749;51.398;5.466;2023-05-03T07:24:23;102669.00;;;11.94;100.00
9421;BME280;4749;51.398;5.466;2023-05-03T07:26:52;102661.25;;;12.02;100.00
9421;BME280;4749;51.398;5.466;2023-05-03T07:29:20;102660.59;;;12.10;100.00
9421;BME280;4749;51.398;5.466;2023-05-03T07:31:47;102667.97;;;12.24;100.00
9421;BME280;4749;51.398;5.466;2023-05-03T07:34:16;102669.97;;;12.34;100.00
9421;BME280;4749;51.398;5.466;2023-05-03T07:36:43;102673.81;;;12.47;100.00
9421;BME280;4749;51.398;5.466;2023-05-03T07:39:10;102676.63;;;12.54;100.00
9421;BME280;4749;51.398;5.466;2023-05-03T07:41:37;102666.13;;;12.56;100.00
9421;BME280;4749;51.398;5.466;2023-05-03T07:44:04;102669.69;;;12.59;100.00
9421;BME280;4749;51.398;5.466;2023-05-03T07:46:31;102657.53;;;12.64;100.00
9421;BME280;4749;51.398;5.466;2023-05-03T07:49:02;102656.88;;;12.75;100.00
9421;BME280;4749;51.398;5.466;2023-05-03T07:51:37;102660.53;;;12.81;100.00
9421;BME280;4749;51.398;5.466;2023-05-03T07:54:05;102660.75;;;12.90;100.00
9421;BME280;4749;51.398;5.466;2023-05-03T07:56:32;102654.75;;;12.99;100.00
9421;BME280;4749;51.398;5.466;2023-05-03T07:58:59;102644.41;;;13.10;100.00
9421;BME280;4749;51.398;5.466;2023-05-03T08:01:36;102647.34;;;13.20;100.00
9421;BME280;4749;51.398;5.466;2023-05-03T08:04:03;102644.03;;;13.32;100.00
9421;BME280;4749;51.398;5.466;2023-05-03T08:06:32;102653.00;;;13.40;100.00
9421;BME280;4749;51.398;5.466;2023-05-03T08:09:01;102641.69;;;13.46;100.00
9421;BME280;4749;51.398;5.466;2023-05-03T08:11:30;102634.81;;;13.56;100.00
9421;BME280;4749;51.398;5.466;2023-05-03T08:13:57;102627.03;;;13.63;100.00
9421;BME280;4749;51.398;5.466;2023-05-03T08:16:24;102632.47;;;13.72;100.00
9421;BME280;4749;51.398;5.466;2023-05-03T08:18:52;102624.72;;;13.82;100.00
9421;BME280;4749;51.398;5.466;2023-05-03T08:21:22;102622.25;;;13.92;100.00
9421;BME280;4749;51.398;5.466;2023-05-03T08:23:53;102622.41;;;14.03;100.00
9421;BME280;4749;51.398;5.466;2023-05-03T08:26:20;102626.16;;;14.16;100.00
9421;BME280;4749;51.398;5.466;2023-05-03T08:28:51;102619.13;;;14.18;98.32
9421;BME280;4749;51.398;5.466;2023-05-03T08:31:18;102622.75;;;14.21;98.22
9421;BME280;4749;51.398;5.466;2023-05-03T08:33:45;102631.59;;;14.25;95.27
9421;BME280;4749;51.398;5.466;2023-05-03T08:36:12;102628.09;;;14.27;92.69
9421;BME280;4749;51.398;5.466;2023-05-03T08:38:39;102624.56;;;14.27;91.50
9421;BME280;4749;51.398;5.466;2023-05-03T08:41:28;102615.84;;;14.32;90.59
9421;BME280;4749;51.398;5.466;2023-05-03T08:43:58;102624.72;;;14.37;89.66
9421;BME280;4749;51.398;5.466;2023-05-03T08:46:27;102616.88;;;14.44;88.12
9421;BME280;4749;51.398;5.466;2023-05-03T08:48:55;102616.13;;;14.48;86.48
9421;BME280;4749;51.398;5.466;2023-05-03T08:51:23;102622.34;;;14.53;86.48
9421;BME280;4749;51.398;5.466;2023-05-03T08:53:51;102618.91;;;14.58;84.41
9421;BME280;4749;51.398;5.466;2023-05-03T08:56:41;102618.13;;;14.66;82.89
9421;BME280;4749;51.398;5.466;2023-05-03T08:59:13;102606.69;;;14.68;82.39
9421;BME280;4749;51.398;5.466;2023-05-03T09:01:42;102608.53;;;14.74;81.99
9421;BME280;4749;51.398;5.466;2023-05-03T09:04:10;102625.34;;;14.79;81.78
9421;BME280;4749;51.398;5.466;2023-05-03T09:06:38;102632.47;;;14.81;81.00
9421;BME280;4749;51.398;5.466;2023-05-03T09:09:06;102637.84;;;14.87;80.42
9421;BME280;4749;51.398;5.466;2023-05-03T09:11:37;102626.44;;;14.93;79.76
9421;BME280;4749;51.398;5.466;2023-05-03T09:14:17;102633.59;;;15.00;78.74
9421;BME280;4749;51.398;5.466;2023-05-03T09:16:45;102627.41;;;15.00;77.53
9421;BME280;4749;51.398;5.466;2023-05-03T09:19:14;102626.50;;;14.98;77.65
9421;BME280;4749;51.398;5.466;2023-05-03T09:21:44;102623.03;;;15.05;77.51
9421;BME280;4749;51.398;5.466;2023-05-03T09:24:19;102622.25;;;15.12;76.41
9421;BME280;4749;51.398;5.466;2023-05-03T09:26:51;102623.19;;;15.15;75.67
9421;BME280;4749;51.398;5.466;2023-05-03T09:29:31;102620.59;;;15.20;75.07
9421;BME280;4749;51.398;5.466;2023-05-03T09:32:04;102618.00;;;15.23;75.02
9421;BME280;4749;51.398;5.466;2023-05-03T09:34:34;102610.06;;;15.28;74.54
9421;BME280;4749;51.398;5.466;2023-05-03T09:37:02;102617.22;;;15.33;74.20
9421;BME280;4749;51.398;5.466;2023-05-03T09:39:29;102626.06;;;15.37;73.96
9421;BME280;4749;51.398;5.466;2023-05-03T09:41:57;102616.44;;;15.43;73.86
9421;BME280;4749;51.398;5.466;2023-05-03T09:44:47;102613.78;;;15.45;73.27
9421;BME280;4749;51.398;5.466;2023-05-03T09:47:17;102606.78;;;15.48;73.50
9421;BME280;4749;51.398;5.466;2023-05-03T09:49:51;102615.72;;;15.58;73.29
9421;BME280;4749;51.398;5.466;2023-05-03T09:52:18;102610.53;;;15.64;72.56
9421;BME280;4749;51.398;5.466;2023-05-03T09:54:49;102610.56;;;15.70;72.39
9421;BME280;4749;51.398;5.466;2023-05-03T09:57:17;102606.19;;;15.77;72.10
9421;BME280;4749;51.398;5.466;2023-05-03T09:59:45;102600.00;;;15.75;71.69
9421;BME280;4749;51.398;5.466;2023-05-03T10:02:13;102603.59;;;15.82;71.42
9421;BME280;4749;51.398;5.466;2023-05-03T10:04:47;102601.91;;;15.90;70.80
9421;BME280;4749;51.398;5.466;2023-05-03T10:07:17;102592.19;;;15.93;70.86
9421;BME280;4749;51.398;5.466;2023-05-03T10:09:48;102589.56;;;15.96;70.29
9421;BME280;4749;51.398;5.466;2023-05-03T10:12:15;102584.31;;;16.01;70.17
9421;BME280;4749;51.398;5.466;2023-05-03T10:14:47;102589.66;;;16.07;70.03
9421;BME280;4749;51.398;5.466;2023-05-03T10:17:28;102585.31;;;16.15;70.22
9421;BME280;4749;51.398;5.466;2023-05-03T10:20:44;102580.06;;;16.24;70.22
9421;BME280;4749;51.398;5.466;2023-05-03T10:23:17;102584.50;;;16.30;70.24
9421;BME280;4749;51.398;5.466;2023-05-03T10:26:12;102580.16;;;16.40;69.87
9421;BME280;4749;51.398;5.466;2023-05-03T10:28:39;102585.50;;;16.44;69.28
9421;BME280;4749;51.398;5.466;2023-05-03T10:31:45;102595.25;;;16.50;67.99
9421;BME280;4749;51.398;5.466;2023-05-03T10:34:23;102586.41;;;16.49;67.78
9421;BME280;4749;51.398;5.466;2023-05-03T10:36:53;102590.84;;;16.52;67.65
9421;BME280;4749;51.398;5.466;2023-05-03T10:39:21;102589.06;;;16.54;67.51
9421;BME280;4749;51.398;5.466;2023-05-03T10:42:05;102585.53;;;16.55;66.89
9421;BME280;4749;51.398;5.466;2023-05-03T10:47:17;102586.53;;;16.69;66.16
9421;BME280;4749;51.398;5.466;2023-05-03T10:49:44;102584.78;;;16.71;66.06
9421;BME280;4749;51.398;5.466;2023-05-03T10:55:22;102591.91;;;16.81;65.79
9421;BME280;4749;51.398;5.466;2023-05-03T10:57:54;102594.59;;;16.89;65.64
9421;BME280;4749;51.398;5.466;2023-05-03T11:00:38;102585.78;;;16.93;64.84
9421;BME280;4749;51.398;5.466;2023-05-03T11:04:01;102582.22;;;16.97;64.85
9421;BME280;4749;51.398;5.466;2023-05-03T11:06:36;102580.50;;;17.10;65.32
9421;BME280;4749;51.398;5.466;2023-05-03T11:09:08;102569.91;;;17.22;65.42
9421;BME280;4749;51.398;5.466;2023-05-03T11:11:38;102565.50;;;17.35;65.70
9421;BME280;4749;51.398;5.466;2023-05-03T11:14:07;102566.44;;;17.49;65.78
9421;BME280;4749;51.398;5.466;2023-05-03T11:16:35;102577.06;;;17.60;65.32
9421;BME280;4749;51.398;5.466;2023-05-03T11:19:02;102571.75;;;17.61;64.10
9421;BME280;4749;51.398;5.466;2023-05-03T11:21:30;102573.53;;;17.62;63.43
9421;BME280;4749;51.398;5.466;2023-05-03T11:23:59;102558.47;;;17.58;62.68
9421;BME280;4749;51.398;5.466;2023-05-03T11:26:27;102558.44;;;17.63;62.77
9421;BME280;4749;51.398;5.466;2023-05-03T11:28:54;102554.91;;;17.64;62.66
9421;BME280;4749;51.398;5.466;2023-05-03T11:31:21;102560.22;;;17.64;61.56
9421;BME280;4749;51.398;5.466;2023-05-03T11:33:49;102562.00;;;17.66;61.64
9421;BME280;4749;51.398;5.466;2023-05-03T11:36:17;102554.03;;;17.72;61.78
9421;BME280;4749;51.398;5.466;2023-05-03T11:38:44;102549.59;;;17.82;62.00
9421;BME280;4749;51.398;5.466;2023-05-03T11:41:14;102544.28;;;17.94;62.15
9421;BME280;4749;51.398;5.466;2023-05-03T11:43:47;102542.50;;;18.04;61.78
9421;BME280;4749;51.398;5.466;2023-05-03T11:46:36;102546.06;;;18.11;62.08
9421;BME280;4749;51.398;5.466;2023-05-03T11:49:05;102536.28;;;18.19;61.86
9421;BME280;4749;51.398;5.466;2023-05-03T11:51:32;102546.03;;;18.20;61.01
9421;BME280;4749;51.398;5.466;2023-05-03T11:54:00;102534.50;;;18.18;60.80
9421;BME280;4749;51.398;5.466;2023-05-03T11:56:46;102522.09;;;18.17;60.88
9421;BME280;4749;51.398;5.466;2023-05-03T11:59:13;102521.19;;;18.19;60.61
9421;BME280;4749;51.398;5.466;2023-05-03T12:01:40;102510.53;;;18.19;59.90
9421;BME280;4749;51.398;5.466;2023-05-03T12:04:11;102519.41;;;18.18;58.70
9421;BME280;4749;51.398;5.466;2023-05-03T12:06:39;102514.09;;;18.15;58.79
9421;BME280;4749;51.398;5.466;2023-05-03T12:09:14;102507.00;;;18.17;58.89
9421;BME280;4749;51.398;5.466;2023-05-03T12:11:43;102506.09;;;18.27;59.33
9421;BME280;4749;51.398;5.466;2023-05-03T12:14:14;102505.16;;;18.39;59.34
9421;BME280;4749;51.398;5.466;2023-05-03T12:16:50;102502.47;;;18.50;59.35
9421;BME280;4749;51.398;5.466;2023-05-03T12:19:27;102488.22;;;18.54;59.16
9421;BME280;4749;51.398;5.466;2023-05-03T12:21:59;102491.78;;;18.59;59.29
9421;BME280;4749;51.398;5.466;2023-05-03T12:24:29;102488.19;;;18.66;58.94
9421;BME280;4749;51.398;5.466;2023-05-03T12:26:59;102476.63;;;18.73;59.25
9421;BME280;4749;51.398;5.466;2023-05-03T12:29:29;102479.25;;;18.84;59.19
9421;BME280;4749;51.398;5.466;2023-05-03T12:32:01;102485.34;;;18.98;59.17
9421;BME280;4749;51.398;5.466;2023-05-03T12:34:30;102489.78;;;19.04;58.69
9421;BME280;4749;51.398;5.466;2023-05-03T12:37:02;102480.00;;;19.04;58.53
9421;BME280;4749;51.398;5.466;2023-05-03T12:39:32;102463.06;;;19.13;58.86
9421;BME280;4749;51.398;5.466;2023-05-03T12:42:03;102471.91;;;19.17;58.76
9421;BME280;4749;51.398;5.466;2023-05-03T12:44:34;102455.06;;;19.13;58.66
9421;BME280;4749;51.398;5.466;2023-05-03T12:47:02;102455.09;;;19.10;58.44
9421;BME280;4749;51.398;5.466;2023-05-03T12:49:30;102448.91;;;19.03;58.09
9421;BME280;4749;51.398;5.466;2023-05-03T12:51:58;102442.69;;;19.04;58.18
9421;BME280;4749;51.398;5.466;2023-05-03T12:54:29;102444.44;;;19.05;58.26
9421;BME280;4749;51.398;5.466;2023-05-03T12:57:00;102439.97;;;19.10;58.37
9421;BME280;4749;51.398;5.466;2023-05-03T12:59:35;102432.81;;;19.14;58.31
9421;BME280;4749;51.398;5.466;2023-05-03T13:02:10;102429.25;;;19.18;58.60
9421;BME280;4749;51.398;5.466;2023-05-03T13:04:40;102430.09;;;19.23;58.61
9421;BME280;4749;51.398;5.466;2023-05-03T13:07:10;102421.16;;;19.29;58.75
9421;BME280;4749;51.398;5.466;2023-05-03T13:09:44;102424.66;;;19.35;58.48
9421;BME280;4749;51.398;5.466;2023-05-03T13:12:17;102422.81;;;19.40;58.03
9421;BME280;4749;51.398;5.466;2023-05-03T13:14:48;102414.81;;;19.44;57.78
9421;BME280;4749;51.398;5.466;2023-05-03T13:17:19;102409.44;;;19.47;57.77
9421;BME280;4749;51.398;5.466;2023-05-03T13:19:50;102401.38;;;19.50;57.73
9421;BME280;4749;51.398;5.466;2023-05-03T13:22:18;102406.69;;;19.56;58.12
9421;BME280;4749;51.398;5.466;2023-05-03T13:24:46;102398.69;;;19.57;57.72
9421;BME280;4749;51.398;5.466;2023-05-03T13:27:15;102398.66;;;19.59;57.87
9421;BME280;4749;51.398;5.466;2023-05-03T13:29:42;102387.97;;;19.63;57.87
9421;BME280;4749;51.398;5.466;2023-05-03T13:32:10;102398.63;;;19.63;57.36
9421;BME280;4749;51.398;5.466;2023-05-03T13:34:38;102393.28;;;19.63;57.57
9421;BME280;4749;51.398;5.466;2023-05-03T13:37:05;102395.03;;;19.66;57.15
9421;BME280;4749;51.398;5.466;2023-05-03T13:39:32;102387.03;;;19.66;57.07
9421;BME280;4749;51.398;5.466;2023-05-03T13:41:59;102391.47;;;19.67;56.82
9421;BME280;4749;51.398;5.466;2023-05-03T13:44:26;102388.78;;;19.67;56.50